Laura B — WDI9376 — position and weather

sailwx.info

Track history (hours):
 
Tides and Currents Weather Stations Pressure Air Temp Water Temp Dewpoint Dewpoint Depression Visibility Wind Speed Wind Dir Waves Ship Positions

Laura B

Owner: G & H TOWING COMPANY, Galveston, TX. More information available from US FCC via Universal Licensing System and Coast Guard Vessel Documentation Center.

Last reported at 2017-Dec-17 01:08 UTC. Time now 2017-Dec-17 04:06 UTC.
Position N 29°45' W 095°10'.

Length 24 m; draft 4.9 m.

Type: Tug. MMSI: 367748030.

Date/timePositionNaut miles runAvg speedWind from/ knotsBaromVisibWave heightAir tempDewpointWater temp
2017-Dec-17 01:08N 29°45' W 095°10'0 1.7
2017-Dec-17 00:55N 29°45' W 095°10'0 0.5
2017-Dec-17 00:29N 29°45' W 095°10'0 0.5
2017-Dec-16 23:24N 29°45' W 095°11'3 2.2
2017-Dec-16 21:56N 29°43' W 095°14'3 7.6
2017-Dec-16 21:29N 29°45' W 095°10'0 0.5
2017-Dec-16 21:00N 29°45' W 095°10'0 0.1
2017-Dec-16 19:11N 29°45' W 095°10'1 7.0
2017-Dec-16 19:00N 29°45' W 095°12'0 0.3
2017-Dec-16 17:51N 29°45' W 095°11'0 0.0
2017-Dec-16 13:34N 29°45' W 095°12'1 8.4
2017-Dec-16 13:30N 29°44' W 095°12'0 0.4
2017-Dec-16 13:00N 29°45' W 095°12'0 0.0
2017-Dec-16 12:28N 29°44' W 095°12'1 1.2
2017-Dec-16 12:01N 29°45' W 095°11'0 0.1
2017-Dec-16 10:22N 29°45' W 095°11'1 1.7
2017-Dec-16 09:53N 29°44' W 095°12'0 0.0
2017-Dec-16 09:25N 29°44' W 095°12'0 0.1
2017-Dec-16 08:50N 29°44' W 095°12'1 3.7
2017-Dec-16 08:28N 29°45' W 095°10'0 0.0
2017-Dec-16 05:07N 29°45' W 095°11'1 8.2
2017-Dec-16 05:00N 29°45' W 095°12'2 1.9
2017-Dec-16 04:03N 29°44' W 095°13'0 0.9
2017-Dec-16 03:58N 29°44' W 095°13'1 2.9
2017-Dec-16 03:30N 29°44' W 095°12'0 0.1
2017-Dec-15 23:50N 29°44' W 095°12'0 0.0
2017-Dec-15 20:30N 29°44' W 095°12'0 0.0
2017-Dec-15 19:58N 29°44' W 095°12'6 0.4
2017-Dec-15 04:18N 29°45' W 095°06'0 0.0
2017-Dec-15 03:47N 29°45' W 095°06'1 0.4
2017-Dec-15 00:26N 29°44' W 095°07'5 0.8
2017-Dec-14 17:56N 29°44' W 095°02'0 0.9
2017-Dec-14 17:27N 29°44' W 095°01'4 7.5
2017-Dec-14 16:58N 29°46' W 095°05'1 0.1
2017-Dec-14 07:08N 29°45' W 095°06'1 1.9
2017-Dec-14 06:41N 29°44' W 095°07'0 0.1
2017-Dec-14 01:32N 29°44' W 095°07'2 0.4
2017-Dec-13 21:43N 29°45' W 095°05'1 0.2
2017-Dec-13 16:09N 29°45' W 095°06'0 2.4
2017-Dec-13 16:00N 29°45' W 095°07'0 0.0
2017-Dec-13 15:03N 29°45' W 095°07'0 0.0
2017-Dec-13 14:51N 29°45' W 095°07'2 1.0
2017-Dec-13 13:18N 29°44' W 095°08'1 0.2
2017-Dec-13 05:26N 29°44' W 095°07'0 0.0
2017-Dec-13 02:41N 29°45' W 095°07'0 0.0
2017-Dec-13 02:11N 29°45' W 095°07'2 8.0
2017-Dec-13 01:56N 29°44' W 095°09'3 5.5
2017-Dec-13 01:24N 29°44' W 095°12'0 0.1
2017-Dec-13 01:00N 29°44' W 095°12'2 2.8
2017-Dec-13 00:18N 29°45' W 095°10'2 4.7
2017-Dec-12 23:55N 29°44' W 095°08'1 0.3
2017-Dec-12 18:42N 29°44' W 095°07'1 5.9
2017-Dec-12 18:29N 29°44' W 095°08'2 2.2
2017-Dec-12 17:31N 29°45' W 095°10'0 0.1
2017-Dec-12 17:23N 29°45' W 095°10'1 1.6
2017-Dec-12 16:48N 29°45' W 095°11'0 0.7
2017-Dec-12 16:16N 29°45' W 095°12'1 0.5
2017-Dec-12 13:18N 29°45' W 095°10'3 7.2
2017-Dec-12 12:49N 29°43' W 095°14'0 0.0
2017-Dec-12 12:17N 29°43' W 095°14'1 2.1
2017-Dec-12 11:58N 29°43' W 095°14'1 2.4
2017-Dec-12 11:30N 29°43' W 095°13'2 3.3
2017-Dec-12 11:00N 29°45' W 095°12'0 0.2
2017-Dec-12 10:30N 29°45' W 095°12'1 1.2
2017-Dec-12 09:59N 29°44' W 095°12'0 0.1
2017-Dec-12 08:04N 29°44' W 095°12'0 3.8
2017-Dec-12 08:00N 29°44' W 095°12'1 1.1
2017-Dec-12 07:26N 29°45' W 095°11'0 0.7
2017-Dec-12 06:59N 29°45' W 095°12'1 1.8
2017-Dec-12 06:29N 29°45' W 095°11'1 1.2
2017-Dec-12 05:13N 29°44' W 095°12'1 6.0
2017-Dec-12 05:00N 29°44' W 095°13'0 0.2
2017-Dec-12 04:30N 29°43' W 095°14'0 0.5
2017-Dec-12 03:47N 29°43' W 095°14'2 6.7
2017-Dec-12 03:30N 29°44' W 095°12'5 3.0
2017-Dec-12 01:59N 29°44' W 095°07'1 0.4
2017-Dec-12 00:00N 29°44' W 095°08'1 1.6
2017-Dec-11 23:27N 29°44' W 095°09'1 2.6
2017-Dec-11 22:58N 29°45' W 095°10'0 0.0
2017-Dec-11 22:29N 29°45' W 095°10'2 0.5
2017-Dec-11 18:00N 29°44' W 095°08'1 0.4
2017-Dec-11 14:38N 29°45' W 095°06'0 0.0
2017-Dec-11 14:27N 29°45' W 095°06'0 0.0
2017-Dec-11 14:00N 29°45' W 095°06'0 0.0
2017-Dec-11 13:30N 29°45' W 095°06'0 0.0
2017-Dec-11 13:00N 29°45' W 095°06'0 0.7
2017-Dec-11 12:28N 29°45' W 095°06'0 0.0
2017-Dec-11 12:00N 29°45' W 095°06'0 0.8
2017-Dec-11 11:30N 29°45' W 095°06'0 0.4
2017-Dec-11 10:47N 29°45' W 095°06'1 1.4
2017-Dec-11 10:24N 29°44' W 095°07'0 0.0
2017-Dec-11 09:48N 29°44' W 095°07'0 0.0
2017-Dec-11 09:15N 29°44' W 095°07'0 0.0
2017-Dec-11 08:57N 29°44' W 095°07'0 0.0
2017-Dec-11 08:27N 29°44' W 095°07'0 0.0
2017-Dec-11 08:00N 29°44' W 095°07'0 0.0
2017-Dec-11 07:27N 29°44' W 095°07'0 0.0
2017-Dec-11 07:00N 29°44' W 095°07'0 0.0
2017-Dec-11 06:30N 29°44' W 095°07'0 0.0
2017-Dec-11 06:00N 29°44' W 095°07'0 0.0
2017-Dec-11 05:21N 29°44' W 095°07'1 2.1
2017-Dec-11 05:00N 29°45' W 095°06'0 0.4
2017-Dec-11 04:28N 29°45' W 095°06'1 2.0
2017-Dec-11 04:00N 29°46' W 095°05'2 0.7
2017-Dec-11 01:22N 29°45' W 095°07'0 0.3
2017-Dec-11 00:45N 29°44' W 095°07'1 1.3
2017-Dec-11 00:20N 29°44' W 095°07'2 5.3
2017-Dec-10 23:57N 29°45' W 095°06'1 2.3
2017-Dec-10 23:26N 29°45' W 095°07'0 0.1
2017-Dec-10 22:52N 29°45' W 095°07'0 0.0
2017-Dec-10 21:13N 29°45' W 095°07'1 0.9
2017-Dec-10 20:25N 29°44' W 095°07'0 0.1
2017-Dec-10 19:04N 29°44' W 095°08'0 0.7
2017-Dec-10 18:58N 29°44' W 095°08'1 1.8
2017-Dec-10 18:28N 29°45' W 095°07'0 0.0
2017-Dec-10 17:43N 29°45' W 095°07'0 0.0
2017-Dec-10 15:01N 29°45' W 095°07'0 0.0
2017-Dec-10 14:59N 29°45' W 095°07'3 6.2
2017-Dec-10 14:30N 29°45' W 095°10'0 0.5
2017-Dec-10 14:00N 29°45' W 095°10'3 5.2
2017-Dec-10 13:30N 29°44' W 095°07'1 0.2
2017-Dec-10 09:10N 29°45' W 095°06'0 0.0
2017-Dec-10 08:09N 29°45' W 095°06'0 0.8
2017-Dec-10 07:35N 29°44' W 095°07'0 0.0
2017-Dec-10 07:17N 29°44' W 095°07'1 3.4
2017-Dec-10 06:57N 29°44' W 095°08'0 0.1
2017-Dec-10 06:14N 29°44' W 095°08'1 4.0
2017-Dec-10 05:56N 29°44' W 095°07'0 0.0
2017-Dec-10 05:26N 29°44' W 095°07'1 1.7
2017-Dec-10 04:59N 29°44' W 095°07'1 1.2
2017-Dec-10 04:30N 29°44' W 095°08'1 2.4
2017-Dec-10 03:57N 29°44' W 095°07'0 0.0
2017-Dec-10 03:00N 29°44' W 095°07'2 0.3
2017-Dec-09 19:52N 29°46' W 095°04'2 1.2
2017-Dec-09 18:02N 29°45' W 095°07'0 0.0
2017-Dec-09 17:53N 29°45' W 095°07'0 0.0
2017-Dec-09 14:05N 29°45' W 095°07'0 0.0
2017-Dec-09 13:59N 29°45' W 095°07'1 1.1
2017-Dec-09 13:30N 29°45' W 095°06'0 0.5
2017-Dec-09 12:59N 29°45' W 095°06'5 5.0
2017-Dec-09 12:02N 29°43' W 095°01'0 7.6
2017-Dec-09 12:00N 29°42' W 095°01'0 0.2
2017-Dec-09 11:25N 29°42' W 095°01'0 0.0
2017-Dec-09 10:57N 29°42' W 095°01'0 0.0
2017-Dec-09 10:31N 29°42' W 095°01'0 0.0
2017-Dec-09 10:00N 29°42' W 095°01'0 0.0
2017-Dec-09 09:30N 29°42' W 095°01'0 0.0
2017-Dec-09 08:44N 29°42' W 095°01'0 0.0
2017-Dec-09 08:29N 29°42' W 095°01'0 0.0
2017-Dec-09 07:59N 29°42' W 095°01'0 0.0
2017-Dec-09 07:29N 29°42' W 095°01'0 0.0
2017-Dec-09 06:47N 29°42' W 095°01'0 0.0
2017-Dec-09 06:14N 29°42' W 095°01'0 0.0
2017-Dec-09 05:50N 29°42' W 095°01'0 0.0
2017-Dec-09 04:51N 29°42' W 095°01'0 0.0
2017-Dec-09 04:02N 29°42' W 095°01'0 0.4
2017-Dec-09 04:00N 29°42' W 095°01'2 3.4
2017-Dec-09 03:30N 29°41' W 095°00'1 1.1
2017-Dec-09 03:00N 29°41' W 094°59'3 4.6
2017-Dec-09 02:27N 29°39' W 094°58'3 1.7
2017-Dec-09 00:53N 29°41' W 094°60'0 1.0
2017-Dec-09 00:25N 29°41' W 095°00'0 0.5
2017-Dec-09 00:00N 29°41' W 095°00'2 3.6
2017-Dec-08 23:30N 29°40' W 094°58'2 1.4
2017-Dec-08 22:23N 29°41' W 094°59'1 3.0
2017-Dec-08 22:01N 29°42' W 095°00'2 1.0
2017-Dec-08 20:32N 29°43' W 095°01'0 4.8
2017-Dec-08 20:27N 29°43' W 095°01'1 2.8
2017-Dec-08 20:01N 29°42' W 095°00'6 7.7
2017-Dec-08 19:16N 29°46' W 095°05'0 0.0
2017-Dec-08 17:40N 29°46' W 095°05'2 7.6
2017-Dec-08 17:24N 29°44' W 095°07'1 0.8
2017-Dec-08 15:41N 29°44' W 095°08'0 0.0
2017-Dec-08 15:30N 29°44' W 095°08'0 0.1
2017-Dec-08 14:36N 29°44' W 095°08'0 1.5
2017-Dec-08 14:30N 29°44' W 095°08'0 0.1
2017-Dec-08 10:24N 29°44' W 095°08'1 2.2
2017-Dec-08 09:57N 29°44' W 095°07'1 0.5
2017-Dec-08 08:03N 29°45' W 095°06'0 0.2
2017-Dec-08 08:00N 29°45' W 095°06'0 0.1
2017-Dec-08 02:21N 29°45' W 095°06'0 0.6
2017-Dec-08 01:58N 29°45' W 095°06'0 0.0
2017-Dec-08 01:27N 29°45' W 095°06'0 0.1
2017-Dec-07 23:39N 29°45' W 095°06'1 2.3
2017-Dec-07 23:05N 29°46' W 095°05'2 1.3
2017-Dec-07 21:49N 29°45' W 095°06'0 0.7
2017-Dec-07 21:24N 29°45' W 095°07'0 0.0
2017-Dec-07 21:00N 29°45' W 095°07'0 0.0
2017-Dec-07 20:30N 29°45' W 095°07'0 0.0
2017-Dec-07 19:51N 29°45' W 095°07'0 0.6
2017-Dec-07 19:02N 29°45' W 095°06'0 1.5
2017-Dec-07 18:59N 29°45' W 095°06'1 2.2
2017-Dec-07 18:23N 29°46' W 095°05'3 0.4
2017-Dec-07 12:10N 29°44' W 095°08'2 8.2
2017-Dec-07 11:58N 29°44' W 095°09'4 6.7
2017-Dec-07 11:27N 29°44' W 095°13'0 0.3
2017-Dec-07 10:51N 29°44' W 095°13'1 0.6
2017-Dec-07 09:54N 29°43' W 095°14'0 0.0
2017-Dec-07 09:30N 29°43' W 095°14'0 0.0
2017-Dec-07 09:00N 29°43' W 095°14'0 0.0
2017-Dec-07 08:30N 29°43' W 095°14'2 1.8
2017-Dec-07 07:21N 29°44' W 095°12'0 0.1
2017-Dec-07 03:23N 29°44' W 095°12'1 1.9
2017-Dec-07 02:40N 29°43' W 095°14'0 0.0
2017-Dec-07 02:28N 29°43' W 095°14'1 1.0
2017-Dec-07 01:56N 29°43' W 095°14'1 2.0
2017-Dec-07 01:29N 29°43' W 095°13'  
Track history (hours):
 
Tides and Currents Weather Stations Pressure Air Temp Water Temp Dewpoint Dewpoint Depression Visibility Wind Speed Wind Dir Waves Ship Positions

Laura B

Owner: G & H TOWING COMPANY, Galveston, TX. More information available from US FCC via Universal Licensing System and Coast Guard Vessel Documentation Center.

Last reported at 2017-Dec-17 01:08 UTC. Time now 2017-Dec-17 04:06 UTC.
Position N 29°45' W 095°10'.

Length 24 m; draft 4.9 m.

Type: Tug. MMSI: 367748030.

Date/timePositionNaut miles runAvg speedWind from/ knotsBaromVisibWave heightAir tempDewpointWater temp
2017-Dec-17 01:08N 29°45' W 095°10'0 1.7
2017-Dec-17 00:55N 29°45' W 095°10'0 0.5
2017-Dec-17 00:29N 29°45' W 095°10'0 0.5
2017-Dec-16 23:24N 29°45' W 095°11'3 2.2
2017-Dec-16 21:56N 29°43' W 095°14'3 7.6
2017-Dec-16 21:29N 29°45' W 095°10'0 0.5
2017-Dec-16 21:00N 29°45' W 095°10'0 0.1
2017-Dec-16 19:11N 29°45' W 095°10'1 7.0
2017-Dec-16 19:00N 29°45' W 095°12'0 0.3
2017-Dec-16 17:51N 29°45' W 095°11'0 0.0
2017-Dec-16 13:34N 29°45' W 095°12'1 8.4
2017-Dec-16 13:30N 29°44' W 095°12'0 0.4
2017-Dec-16 13:00N 29°45' W 095°12'0 0.0
2017-Dec-16 12:28N 29°44' W 095°12'1 1.2
2017-Dec-16 12:01N 29°45' W 095°11'0 0.1
2017-Dec-16 10:22N 29°45' W 095°11'1 1.7
2017-Dec-16 09:53N 29°44' W 095°12'0 0.0
2017-Dec-16 09:25N 29°44' W 095°12'0 0.1
2017-Dec-16 08:50N 29°44' W 095°12'1 3.7
2017-Dec-16 08:28N 29°45' W 095°10'0 0.0
2017-Dec-16 05:07N 29°45' W 095°11'1 8.2
2017-Dec-16 05:00N 29°45' W 095°12'2 1.9
2017-Dec-16 04:03N 29°44' W 095°13'0 0.9
2017-Dec-16 03:58N 29°44' W 095°13'1 2.9
2017-Dec-16 03:30N 29°44' W 095°12'0 0.1
2017-Dec-15 23:50N 29°44' W 095°12'0 0.0
2017-Dec-15 20:30N 29°44' W 095°12'0 0.0
2017-Dec-15 19:58N 29°44' W 095°12'6 0.4
2017-Dec-15 04:18N 29°45' W 095°06'0 0.0
2017-Dec-15 03:47N 29°45' W 095°06'1 0.4
2017-Dec-15 00:26N 29°44' W 095°07'5 0.8
2017-Dec-14 17:56N 29°44' W 095°02'0 0.9
2017-Dec-14 17:27N 29°44' W 095°01'4 7.5
2017-Dec-14 16:58N 29°46' W 095°05'1 0.1
2017-Dec-14 07:08N 29°45' W 095°06'1 1.9
2017-Dec-14 06:41N 29°44' W 095°07'0 0.1
2017-Dec-14 01:32N 29°44' W 095°07'2 0.4
2017-Dec-13 21:43N 29°45' W 095°05'1 0.2
2017-Dec-13 16:09N 29°45' W 095°06'0 2.4
2017-Dec-13 16:00N 29°45' W 095°07'0 0.0
2017-Dec-13 15:03N 29°45' W 095°07'0 0.0
2017-Dec-13 14:51N 29°45' W 095°07'2 1.0
2017-Dec-13 13:18N 29°44' W 095°08'1 0.2
2017-Dec-13 05:26N 29°44' W 095°07'0 0.0
2017-Dec-13 02:41N 29°45' W 095°07'0 0.0
2017-Dec-13 02:11N 29°45' W 095°07'2 8.0
2017-Dec-13 01:56N 29°44' W 095°09'3 5.5
2017-Dec-13 01:24N 29°44' W 095°12'0 0.1
2017-Dec-13 01:00N 29°44' W 095°12'2 2.8
2017-Dec-13 00:18N 29°45' W 095°10'2 4.7
2017-Dec-12 23:55N 29°44' W 095°08'1 0.3
2017-Dec-12 18:42N 29°44' W 095°07'1 5.9
2017-Dec-12 18:29N 29°44' W 095°08'2 2.2
2017-Dec-12 17:31N 29°45' W 095°10'0 0.1
2017-Dec-12 17:23N 29°45' W 095°10'1 1.6
2017-Dec-12 16:48N 29°45' W 095°11'0 0.7
2017-Dec-12 16:16N 29°45' W 095°12'1 0.5
2017-Dec-12 13:18N 29°45' W 095°10'3 7.2
2017-Dec-12 12:49N 29°43' W 095°14'0 0.0
2017-Dec-12 12:17N 29°43' W 095°14'1 2.1
2017-Dec-12 11:58N 29°43' W 095°14'1 2.4
2017-Dec-12 11:30N 29°43' W 095°13'2 3.3
2017-Dec-12 11:00N 29°45' W 095°12'0 0.2
2017-Dec-12 10:30N 29°45' W 095°12'1 1.2
2017-Dec-12 09:59N 29°44' W 095°12'0 0.1
2017-Dec-12 08:04N 29°44' W 095°12'0 3.8
2017-Dec-12 08:00N 29°44' W 095°12'1 1.1
2017-Dec-12 07:26N 29°45' W 095°11'0 0.7
2017-Dec-12 06:59N 29°45' W 095°12'1 1.8
2017-Dec-12 06:29N 29°45' W 095°11'1 1.2
2017-Dec-12 05:13N 29°44' W 095°12'1 6.0
2017-Dec-12 05:00N 29°44' W 095°13'0 0.2
2017-Dec-12 04:30N 29°43' W 095°14'0 0.5
2017-Dec-12 03:47N 29°43' W 095°14'2 6.7
2017-Dec-12 03:30N 29°44' W 095°12'5 3.0
2017-Dec-12 01:59N 29°44' W 095°07'1 0.4
2017-Dec-12 00:00N 29°44' W 095°08'1 1.6
2017-Dec-11 23:27N 29°44' W 095°09'1 2.6
2017-Dec-11 22:58N 29°45' W 095°10'0 0.0
2017-Dec-11 22:29N 29°45' W 095°10'2 0.5
2017-Dec-11 18:00N 29°44' W 095°08'1 0.4
2017-Dec-11 14:38N 29°45' W 095°06'0 0.0
2017-Dec-11 14:27N 29°45' W 095°06'0 0.0
2017-Dec-11 14:00N 29°45' W 095°06'0 0.0
2017-Dec-11 13:30N 29°45' W 095°06'0 0.0
2017-Dec-11 13:00N 29°45' W 095°06'0 0.7
2017-Dec-11 12:28N 29°45' W 095°06'0 0.0
2017-Dec-11 12:00N 29°45' W 095°06'0 0.8
2017-Dec-11 11:30N 29°45' W 095°06'0 0.4
2017-Dec-11 10:47N 29°45' W 095°06'1 1.4
2017-Dec-11 10:24N 29°44' W 095°07'0 0.0
2017-Dec-11 09:48N 29°44' W 095°07'0 0.0
2017-Dec-11 09:15N 29°44' W 095°07'0 0.0
2017-Dec-11 08:57N 29°44' W 095°07'0 0.0
2017-Dec-11 08:27N 29°44' W 095°07'0 0.0
2017-Dec-11 08:00N 29°44' W 095°07'0 0.0
2017-Dec-11 07:27N 29°44' W 095°07'0 0.0
2017-Dec-11 07:00N 29°44' W 095°07'0 0.0
2017-Dec-11 06:30N 29°44' W 095°07'0 0.0
2017-Dec-11 06:00N 29°44' W 095°07'0 0.0
2017-Dec-11 05:21N 29°44' W 095°07'1 2.1
2017-Dec-11 05:00N 29°45' W 095°06'0 0.4
2017-Dec-11 04:28N 29°45' W 095°06'1 2.0
2017-Dec-11 04:00N 29°46' W 095°05'2 0.7
2017-Dec-11 01:22N 29°45' W 095°07'0 0.3
2017-Dec-11 00:45N 29°44' W 095°07'1 1.3
2017-Dec-11 00:20N 29°44' W 095°07'2 5.3
2017-Dec-10 23:57N 29°45' W 095°06'1 2.3
2017-Dec-10 23:26N 29°45' W 095°07'0 0.1
2017-Dec-10 22:52N 29°45' W 095°07'0 0.0
2017-Dec-10 21:13N 29°45' W 095°07'1 0.9
2017-Dec-10 20:25N 29°44' W 095°07'0 0.1
2017-Dec-10 19:04N 29°44' W 095°08'0 0.7
2017-Dec-10 18:58N 29°44' W 095°08'1 1.8
2017-Dec-10 18:28N 29°45' W 095°07'0 0.0
2017-Dec-10 17:43N 29°45' W 095°07'0 0.0
2017-Dec-10 15:01N 29°45' W 095°07'0 0.0
2017-Dec-10 14:59N 29°45' W 095°07'3 6.2
2017-Dec-10 14:30N 29°45' W 095°10'0 0.5
2017-Dec-10 14:00N 29°45' W 095°10'3 5.2
2017-Dec-10 13:30N 29°44' W 095°07'1 0.2
2017-Dec-10 09:10N 29°45' W 095°06'0 0.0
2017-Dec-10 08:09N 29°45' W 095°06'0 0.8
2017-Dec-10 07:35N 29°44' W 095°07'0 0.0
2017-Dec-10 07:17N 29°44' W 095°07'1 3.4
2017-Dec-10 06:57N 29°44' W 095°08'0 0.1
2017-Dec-10 06:14N 29°44' W 095°08'1 4.0
2017-Dec-10 05:56N 29°44' W 095°07'0 0.0
2017-Dec-10 05:26N 29°44' W 095°07'1 1.7
2017-Dec-10 04:59N 29°44' W 095°07'1 1.2
2017-Dec-10 04:30N 29°44' W 095°08'1 2.4
2017-Dec-10 03:57N 29°44' W 095°07'0 0.0
2017-Dec-10 03:00N 29°44' W 095°07'2 0.3
2017-Dec-09 19:52N 29°46' W 095°04'2 1.2
2017-Dec-09 18:02N 29°45' W 095°07'0 0.0
2017-Dec-09 17:53N 29°45' W 095°07'0 0.0
2017-Dec-09 14:05N 29°45' W 095°07'0 0.0
2017-Dec-09 13:59N 29°45' W 095°07'1 1.1
2017-Dec-09 13:30N 29°45' W 095°06'0 0.5
2017-Dec-09 12:59N 29°45' W 095°06'5 5.0
2017-Dec-09 12:02N 29°43' W 095°01'0 7.6
2017-Dec-09 12:00N 29°42' W 095°01'0 0.2
2017-Dec-09 11:25N 29°42' W 095°01'0 0.0
2017-Dec-09 10:57N 29°42' W 095°01'0 0.0
2017-Dec-09 10:31N 29°42' W 095°01'0 0.0
2017-Dec-09 10:00N 29°42' W 095°01'0 0.0
2017-Dec-09 09:30N 29°42' W 095°01'0 0.0
2017-Dec-09 08:44N 29°42' W 095°01'0 0.0
2017-Dec-09 08:29N 29°42' W 095°01'0 0.0
2017-Dec-09 07:59N 29°42' W 095°01'0 0.0
2017-Dec-09 07:29N 29°42' W 095°01'0 0.0
2017-Dec-09 06:47N 29°42' W 095°01'0 0.0
2017-Dec-09 06:14N 29°42' W 095°01'0 0.0
2017-Dec-09 05:50N 29°42' W 095°01'0 0.0
2017-Dec-09 04:51N 29°42' W 095°01'0 0.0
2017-Dec-09 04:02N 29°42' W 095°01'0 0.4
2017-Dec-09 04:00N 29°42' W 095°01'2 3.4
2017-Dec-09 03:30N 29°41' W 095°00'1 1.1
2017-Dec-09 03:00N 29°41' W 094°59'3 4.6
2017-Dec-09 02:27N 29°39' W 094°58'3 1.7
2017-Dec-09 00:53N 29°41' W 094°60'0 1.0
2017-Dec-09 00:25N 29°41' W 095°00'0 0.5
2017-Dec-09 00:00N 29°41' W 095°00'2 3.6
2017-Dec-08 23:30N 29°40' W 094°58'2 1.4
2017-Dec-08 22:23N 29°41' W 094°59'1 3.0
2017-Dec-08 22:01N 29°42' W 095°00'2 1.0
2017-Dec-08 20:32N 29°43' W 095°01'0 4.8
2017-Dec-08 20:27N 29°43' W 095°01'1 2.8
2017-Dec-08 20:01N 29°42' W 095°00'6 7.7
2017-Dec-08 19:16N 29°46' W 095°05'0 0.0
2017-Dec-08 17:40N 29°46' W 095°05'2 7.6
2017-Dec-08 17:24N 29°44' W 095°07'1 0.8
2017-Dec-08 15:41N 29°44' W 095°08'0 0.0
2017-Dec-08 15:30N 29°44' W 095°08'0 0.1
2017-Dec-08 14:36N 29°44' W 095°08'0 1.5
2017-Dec-08 14:30N 29°44' W 095°08'0 0.1
2017-Dec-08 10:24N 29°44' W 095°08'1 2.2
2017-Dec-08 09:57N 29°44' W 095°07'1 0.5
2017-Dec-08 08:03N 29°45' W 095°06'0 0.2
2017-Dec-08 08:00N 29°45' W 095°06'0 0.1
2017-Dec-08 02:21N 29°45' W 095°06'0 0.6
2017-Dec-08 01:58N 29°45' W 095°06'0 0.0
2017-Dec-08 01:27N 29°45' W 095°06'0 0.1
2017-Dec-07 23:39N 29°45' W 095°06'1 2.3
2017-Dec-07 23:05N 29°46' W 095°05'2 1.3
2017-Dec-07 21:49N 29°45' W 095°06'0 0.7
2017-Dec-07 21:24N 29°45' W 095°07'0 0.0
2017-Dec-07 21:00N 29°45' W 095°07'0 0.0
2017-Dec-07 20:30N 29°45' W 095°07'0 0.0
2017-Dec-07 19:51N 29°45' W 095°07'0 0.6
2017-Dec-07 19:02N 29°45' W 095°06'0 1.5
2017-Dec-07 18:59N 29°45' W 095°06'1 2.2
2017-Dec-07 18:23N 29°46' W 095°05'3 0.4
2017-Dec-07 12:10N 29°44' W 095°08'2 8.2
2017-Dec-07 11:58N 29°44' W 095°09'4 6.7
2017-Dec-07 11:27N 29°44' W 095°13'0 0.3
2017-Dec-07 10:51N 29°44' W 095°13'1 0.6
2017-Dec-07 09:54N 29°43' W 095°14'0 0.0
2017-Dec-07 09:30N 29°43' W 095°14'0 0.0
2017-Dec-07 09:00N 29°43' W 095°14'0 0.0
2017-Dec-07 08:30N 29°43' W 095°14'2 1.8
2017-Dec-07 07:21N 29°44' W 095°12'0 0.1
2017-Dec-07 03:23N 29°44' W 095°12'1 1.9
2017-Dec-07 02:40N 29°43' W 095°14'0 0.0
2017-Dec-07 02:28N 29°43' W 095°14'1 1.0
2017-Dec-07 01:56N 29°43' W 095°14'1 2.0
2017-Dec-07 01:29N 29°43' W 095°13'  

Dump ship's entire track history